FDB4GP OMDB-LTFM
Flight info
| Callsign | FDB4GP |
|---|---|
| Flight time | N/A |
| Altitude | 32000 |
| Route | RIDAP M557 TUMAK L602 GADSI M860 NAMDI/N0448F340 M860 NINVA UM860 NAREN UT368 UMLEN UL718 ETESU UT888 SIV UL615 ERSEN |
| Aircraft | B738/M-SDE1E2E3FGHIJ1LM3ORVWXYZ/HB1 |
Departure
| Time | 2026-04-26 12:14 |
|---|---|
| Airport | Dubai International Airport (OMDB) |
Arrival
| Time | N/A |
|---|---|
| Airport | İstanbul Airport (LTFM) |
| Time | Latitude | Longitude | Altitude | Speed | Heading |
|---|---|---|---|---|---|
| 2026-04-26 11:35 | 25.26181 | 55.34563 | 48 ft | 0 kts | 31° |
| 2026-04-26 12:01 | 25.26180 | 55.34563 | 47 ft | 0 kts | 31° |
| 2026-04-26 12:01 | 25.26168 | 55.34555 | 46 ft | 2 kts | 33° |
| 2026-04-26 12:01 | 25.26155 | 55.34546 | 45 ft | 2 kts | 32° |
| 2026-04-26 12:02 | 25.26142 | 55.34537 | 44 ft | 2 kts | 32° |
| 2026-04-26 12:02 | 25.26134 | 55.34532 | 43 ft | 2 kts | 32° |
| 2026-04-26 12:02 | 25.26116 | 55.34520 | 42 ft | 2 kts | 36° |
| 2026-04-26 12:02 | 25.26106 | 55.34508 | 41 ft | 2 kts | 63° |
| 2026-04-26 12:03 | 25.26101 | 55.34492 | 40 ft | 2 kts | 83° |
| 2026-04-26 12:03 | 25.26102 | 55.34475 | 41 ft | 2 kts | 104° |
| 2026-04-26 12:03 | 25.26108 | 55.34460 | 41 ft | 2 kts | 124° |
| 2026-04-26 12:03 | 25.26116 | 55.34446 | 41 ft | 2 kts | 120° |
| 2026-04-26 12:04 | 25.26121 | 55.34438 | 41 ft | 0 kts | 121° |
| 2026-04-26 12:05 | 25.26120 | 55.34440 | 41 ft | 1 kts | 121° |
| 2026-04-26 12:06 | 25.26094 | 55.34488 | 40 ft | 11 kts | 121° |
| 2026-04-26 12:06 | 25.26053 | 55.34571 | 37 ft | 12 kts | 100° |
| 2026-04-26 12:06 | 25.26085 | 55.34643 | 39 ft | 10 kts | 46° |
| 2026-04-26 12:06 | 25.26155 | 55.34721 | 45 ft | 15 kts | 45° |
| 2026-04-26 12:07 | 25.26228 | 55.34785 | 47 ft | 11 kts | 33° |
| 2026-04-26 12:07 | 25.26308 | 55.34840 | 48 ft | 14 kts | 34° |
| 2026-04-26 12:07 | 25.26316 | 55.34940 | 42 ft | 16 kts | 118° |
| 2026-04-26 12:07 | 25.26244 | 55.35070 | 30 ft | 23 kts | 121° |
| 2026-04-26 12:08 | 25.26147 | 55.35246 | 14 ft | 28 kts | 120° |
| 2026-04-26 12:08 | 25.26034 | 55.35450 | 0 ft | 32 kts | 122° |
| 2026-04-26 12:08 | 25.25917 | 55.35660 | 1 ft | 30 kts | 120° |
| 2026-04-26 12:08 | 25.25817 | 55.35844 | 10 ft | 24 kts | 121° |
| 2026-04-26 12:09 | 25.25734 | 55.35990 | 15 ft | 20 kts | 122° |
| 2026-04-26 12:09 | 25.25649 | 55.36144 | 18 ft | 29 kts | 121° |
| 2026-04-26 12:09 | 25.25542 | 55.36337 | 25 ft | 27 kts | 122° |
| 2026-04-26 12:09 | 25.25449 | 55.36500 | 32 ft | 23 kts | 121° |
| 2026-04-26 12:10 | 25.25355 | 55.36674 | 40 ft | 31 kts | 121° |
| 2026-04-26 12:10 | 25.25239 | 55.36878 | 50 ft | 29 kts | 122° |
| 2026-04-26 12:10 | 25.25142 | 55.37059 | 53 ft | 26 kts | 120° |
| 2026-04-26 12:10 | 25.25046 | 55.37231 | 51 ft | 25 kts | 122° |
| 2026-04-26 12:11 | 25.24952 | 55.37402 | 46 ft | 26 kts | 121° |
| 2026-04-26 12:11 | 25.24857 | 55.37576 | 43 ft | 26 kts | 121° |
| 2026-04-26 12:11 | 25.24759 | 55.37751 | 39 ft | 26 kts | 122° |
| 2026-04-26 12:11 | 25.24679 | 55.37893 | 36 ft | 11 kts | 122° |
| 2026-04-26 12:12 | 25.24683 | 55.37959 | 35 ft | 5 kts | 46° |
| 2026-04-26 12:12 | 25.24709 | 55.37979 | 34 ft | 4 kts | 31° |
| 2026-04-26 12:12 | 25.24742 | 55.38000 | 33 ft | 6 kts | 30° |
| 2026-04-26 12:12 | 25.24767 | 55.38017 | 32 ft | 6 kts | 30° |
| 2026-04-26 12:13 | 25.24824 | 55.37997 | 31 ft | 7 kts | 300° |
| 2026-04-26 12:13 | 25.24828 | 55.37990 | 31 ft | 0 kts | 301° |
| 2026-04-26 12:13 | 25.24906 | 55.37844 | 34 ft | 56 kts | 298° |
| 2026-04-26 12:13 | 25.25241 | 55.37251 | 39 ft | 123 kts | 301° |
| 2026-04-26 12:14 | 25.25795 | 55.36242 | 27 ft | 179 kts | 300° |
| 2026-04-26 12:14 | 25.26465 | 55.35070 | 751 ft | 178 kts | 303° |
| 2026-04-26 12:14 | 25.27127 | 55.33931 | 1456 ft | 186 kts | 302° |
| 2026-04-26 12:14 | 25.27798 | 55.32708 | 2131 ft | 188 kts | 301° |
| 2026-04-26 12:15 | 25.28430 | 55.31467 | 2731 ft | 193 kts | 294° |
| 2026-04-26 12:15 | 25.28727 | 55.29954 | 3187 ft | 208 kts | 278° |
| 2026-04-26 12:15 | 25.28897 | 55.28295 | 3584 ft | 227 kts | 279° |
| 2026-04-26 12:15 | 25.29143 | 55.26535 | 4123 ft | 239 kts | 281° |
| 2026-04-26 12:16 | 25.29442 | 55.24675 | 4665 ft | 252 kts | 281° |
| 2026-04-26 12:16 | 25.29763 | 55.22726 | 5287 ft | 261 kts | 281° |
| 2026-04-26 12:16 | 25.30085 | 55.20747 | 6102 ft | 262 kts | 281° |
| 2026-04-26 12:16 | 25.30401 | 55.18780 | 6833 ft | 266 kts | 281° |
| 2026-04-26 12:17 | 25.30721 | 55.16764 | 7594 ft | 269 kts | 280° |
| 2026-04-26 12:17 | 25.31046 | 55.14731 | 8333 ft | 273 kts | 279° |
| 2026-04-26 12:17 | 25.31378 | 55.12671 | 9073 ft | 276 kts | 279° |
| 2026-04-26 12:17 | 25.31712 | 55.10591 | 9809 ft | 279 kts | 279° |
| 2026-04-26 12:18 | 25.32053 | 55.08456 | 10336 ft | 289 kts | 279° |
| 2026-04-26 12:18 | 25.32414 | 55.06202 | 10782 ft | 304 kts | 279° |
| 2026-04-26 12:18 | 25.32791 | 55.03853 | 11148 ft | 320 kts | 279° |
| 2026-04-26 12:18 | 25.33189 | 55.01376 | 11505 ft | 335 kts | 279° |
| 2026-04-26 12:19 | 25.33607 | 54.98773 | 11987 ft | 344 kts | 279° |
| 2026-04-26 12:19 | 25.34020 | 54.96192 | 12666 ft | 347 kts | 279° |
| 2026-04-26 12:19 | 25.34442 | 54.93534 | 13352 ft | 350 kts | 279° |
| 2026-04-26 12:19 | 25.34888 | 54.90894 | 14036 ft | 353 kts | 282° |
| 2026-04-26 12:20 | 25.35498 | 54.88249 | 14730 ft | 356 kts | 285° |
| 2026-04-26 12:20 | 25.36237 | 54.85620 | 15470 ft | 358 kts | 287° |
| 2026-04-26 12:20 | 25.37016 | 54.83025 | 16165 ft | 361 kts | 287° |
| 2026-04-26 12:20 | 25.37812 | 54.80395 | 16835 ft | 363 kts | 287° |
| 2026-04-26 12:21 | 25.38609 | 54.77717 | 17475 ft | 367 kts | 286° |
| 2026-04-26 12:21 | 25.39393 | 54.75037 | 18102 ft | 370 kts | 286° |
| 2026-04-26 12:21 | 25.40181 | 54.72307 | 18747 ft | 372 kts | 285° |
| 2026-04-26 12:21 | 25.40963 | 54.69572 | 19336 ft | 375 kts | 285° |
| 2026-04-26 12:22 | 25.41752 | 54.66807 | 19922 ft | 378 kts | 285° |
| 2026-04-26 12:22 | 25.42541 | 54.64034 | 20559 ft | 379 kts | 285° |
| 2026-04-26 12:22 | 25.43339 | 54.61227 | 21098 ft | 383 kts | 285° |
| 2026-04-26 12:22 | 25.44154 | 54.58414 | 21625 ft | 387 kts | 285° |
| 2026-04-26 12:23 | 25.44987 | 54.55593 | 22178 ft | 389 kts | 285° |
| 2026-04-26 12:23 | 25.45833 | 54.52746 | 22661 ft | 392 kts | 285° |